createdAt,value
2023-02-27T00:01:32.792Z,89.31
2023-02-27T00:04:01.433Z,89.33
2023-02-27T00:06:29.369Z,89.46
2023-02-27T00:08:57.076Z,89.58
2023-02-27T00:11:24.972Z,89.67
2023-02-27T00:13:52.737Z,89.71
2023-02-27T00:16:20.627Z,89.91
2023-02-27T00:18:48.330Z,89.82
2023-02-27T00:21:16.408Z,89.89
2023-02-27T00:23:44.179Z,90.02
2023-02-27T00:26:11.741Z,90.07
2023-02-27T00:28:39.595Z,90.21
2023-02-27T00:31:07.379Z,90.24
2023-02-27T00:33:35.201Z,90.24
2023-02-27T00:36:03.274Z,90.31
2023-02-27T00:38:31.614Z,90.26
2023-02-27T00:40:59.564Z,90.30
2023-02-27T00:43:27.436Z,90.32
2023-02-27T00:45:55.341Z,90.27
2023-02-27T00:48:22.959Z,90.27
2023-02-27T00:50:50.920Z,90.32
2023-02-27T00:53:18.670Z,90.34
2023-02-27T00:55:46.593Z,90.25
2023-02-27T00:58:17.602Z,90.30
2023-02-27T01:00:45.610Z,90.27
2023-02-27T01:03:13.192Z,90.24
2023-02-27T01:05:41.575Z,90.14
2023-02-27T01:08:09.217Z,89.88
2023-02-27T01:10:38.331Z,89.97
2023-02-27T01:13:07.237Z,89.93
2023-02-27T01:15:34.843Z,89.93
2023-02-27T01:18:03.492Z,89.95
2023-02-27T01:20:31.097Z,89.93
2023-02-27T01:22:58.929Z,89.90
2023-02-27T01:25:26.682Z,89.89
2023-02-27T01:27:55.612Z,89.88
2023-02-27T01:30:23.621Z,89.93
2023-02-27T01:32:51.524Z,89.83
2023-02-27T01:35:19.347Z,89.84
2023-02-27T01:37:47.086Z,89.74
2023-02-27T01:40:16.060Z,89.75
2023-02-27T01:42:46.651Z,89.75
2023-02-27T01:45:39.536Z,89.74
2023-02-27T01:48:28.502Z,89.76
2023-02-27T01:51:07.703Z,89.84
2023-02-27T01:53:38.483Z,89.67
2023-02-27T01:56:11.467Z,89.62
2023-02-27T01:58:40.597Z,89.48
2023-02-27T02:01:08.475Z,89.54
2023-02-27T02:04:01.371Z,89.58
2023-02-27T02:06:34.821Z,89.57
2023-02-27T02:09:05.630Z,89.56
2023-02-27T02:11:33.509Z,89.62
2023-02-27T02:14:03.018Z,89.71
2023-02-27T02:17:14.434Z,89.96
2023-02-27T02:19:59.356Z,90.04
2023-02-27T02:22:55.797Z,90.25
2023-02-27T02:25:58.177Z,90.34
2023-02-27T02:29:11.962Z,90.36
2023-02-27T02:31:45.342Z,90.57
2023-02-27T02:34:38.367Z,90.64
2023-02-27T02:37:43.527Z,90.67
2023-02-27T02:40:31.917Z,90.74
2023-02-27T02:43:11.387Z,90.81
2023-02-27T02:45:50.642Z,90.80
2023-02-27T02:48:29.522Z,90.90
2023-02-27T02:51:11.387Z,90.91
2023-02-27T02:54:09.960Z,90.82
2023-02-27T02:57:06.208Z,90.70
2023-02-27T02:59:59.248Z,90.58
2023-02-27T03:02:33.095Z,90.57
2023-02-27T03:05:11.970Z,90.49
2023-02-27T03:07:58.963Z,90.43
2023-02-27T03:10:45.434Z,90.48
2023-02-27T03:13:35.433Z,90.49
2023-02-27T03:16:29.034Z,90.53
2023-02-27T03:19:14.837Z,90.50
2023-02-27T03:21:57.318Z,90.62
2023-02-27T03:24:50.652Z,90.59
2023-02-27T03:27:22.629Z,90.62
2023-02-27T03:30:02.145Z,90.60
2023-02-27T03:32:57.079Z,90.62
2023-02-27T03:35:30.734Z,90.67
2023-02-27T03:38:25.386Z,90.66
2023-02-27T03:41:20.291Z,90.68
2023-02-27T03:44:07.255Z,90.69
2023-02-27T03:46:35.423Z,90.72
2023-02-27T03:49:04.059Z,90.84
2023-02-27T03:51:33.105Z,91.04
2023-02-27T03:54:17.147Z,91.13
2023-02-27T03:56:59.413Z,91.19
2023-02-27T03:59:29.110Z,91.24
2023-02-27T04:01:59.366Z,91.28
2023-02-27T04:04:31.386Z,91.30
2023-02-27T04:07:59.633Z,91.34
2023-02-27T04:10:48.010Z,91.33
2023-02-27T04:13:54.519Z,91.33
2023-02-27T04:16:50.313Z,91.33
2023-02-27T04:19:38.674Z,91.28
2023-02-27T04:22:35.897Z,91.21
2023-02-27T04:25:40.770Z,91.16
2023-02-27T04:28:16.638Z,91.16
2023-02-27T04:30:58.648Z,91.14
2023-02-27T04:33:45.418Z,91.25
2023-02-27T04:36:36.704Z,91.33
2023-02-27T04:39:14.459Z,91.32
2023-02-27T04:41:50.280Z,91.33
2023-02-27T04:44:20.088Z,91.19
2023-02-27T04:46:49.788Z,91.13
2023-02-27T04:49:28.302Z,91.15
2023-02-27T04:52:10.525Z,91.21
2023-02-27T04:55:01.611Z,91.50
2023-02-27T04:57:40.789Z,91.42
2023-02-27T05:00:13.450Z,91.57
2023-02-27T05:02:45.412Z,91.74
2023-02-27T05:05:21.728Z,91.98
2023-02-27T05:07:57.124Z,92.27
2023-02-27T05:10:36.680Z,92.35
2023-02-27T05:13:19.033Z,92.71
2023-02-27T05:16:12.998Z,93.18
2023-02-27T05:18:41.076Z,93.20
2023-02-27T05:21:31.014Z,93.22
2023-02-27T05:24:13.419Z,93.47
2023-02-27T05:27:03.328Z,93.26
2023-02-27T05:29:51.620Z,92.86
2023-02-27T05:32:55.953Z,92.40
2023-02-27T05:35:34.381Z,92.22
2023-02-27T05:38:13.557Z,91.63
2023-02-27T05:40:57.723Z,91.57
2023-02-27T05:43:35.854Z,91.54
2023-02-27T05:46:11.606Z,91.50
2023-02-27T05:48:44.812Z,91.70
2023-02-27T05:51:14.819Z,91.71
2023-02-27T05:53:48.036Z,91.62
2023-02-27T05:56:19.668Z,91.73
2023-02-27T05:58:55.413Z,91.83
2023-02-27T06:01:24.086Z,91.91
2023-02-27T06:03:51.772Z,91.99
2023-02-27T06:06:20.135Z,92.00
2023-02-27T06:08:47.979Z,92.10
2023-02-27T06:11:17.309Z,92.25
2023-02-27T06:13:44.938Z,92.23
2023-02-27T06:16:14.791Z,92.33
2023-02-27T06:18:42.745Z,92.56
2023-02-27T06:21:12.878Z,92.81
2023-02-27T06:23:40.790Z,92.77
2023-02-27T06:26:10.533Z,92.77
2023-02-27T06:28:38.655Z,92.88
2023-02-27T06:31:06.704Z,92.87
2023-02-27T06:33:34.949Z,92.73
2023-02-27T06:36:03.007Z,92.72
2023-02-27T06:38:31.124Z,92.72
2023-02-27T06:40:58.726Z,92.60
2023-02-27T06:43:26.477Z,92.48
2023-02-27T06:45:54.765Z,92.08
2023-02-27T06:48:22.513Z,92.02
2023-02-27T06:50:55.881Z,92.16
2023-02-27T06:53:25.110Z,91.25
2023-02-27T06:55:53.004Z,91.45
2023-02-27T06:58:20.834Z,91.38
2023-02-27T07:00:48.669Z,91.34
2023-02-27T07:03:16.360Z,91.05
2023-02-27T07:05:44.912Z,91.22
2023-02-27T07:08:12.898Z,91.18
2023-02-27T07:10:42.546Z,90.96
2023-02-27T07:13:10.461Z,91.13
2023-02-27T07:15:38.290Z,90.99
2023-02-27T07:18:06.289Z,90.34
2023-02-27T07:20:34.086Z,90.59
2023-02-27T07:23:01.982Z,90.75
2023-02-27T07:25:29.721Z,90.83
2023-02-27T07:27:57.270Z,90.74
2023-02-27T07:30:24.976Z,90.75
2023-02-27T07:32:52.723Z,90.87
2023-02-27T07:35:20.288Z,90.92
2023-02-27T07:37:48.199Z,90.92
2023-02-27T07:40:16.217Z,90.96
2023-02-27T07:42:43.886Z,90.96
2023-02-27T07:45:11.828Z,90.99
2023-02-27T07:47:39.114Z,91.07
2023-02-27T07:50:07.655Z,91.19
2023-02-27T07:52:35.297Z,91.28
2023-02-27T07:55:03.155Z,91.46
2023-02-27T07:57:31.190Z,91.38
2023-02-27T07:59:58.711Z,91.43
2023-02-27T08:02:26.769Z,91.41
2023-02-27T08:04:54.511Z,91.33
2023-02-27T08:07:24.757Z,91.36
2023-02-27T08:09:52.489Z,91.35
2023-02-27T08:12:20.074Z,91.35
2023-02-27T08:14:48.197Z,91.54
2023-02-27T08:17:16.050Z,91.44
2023-02-27T08:19:44.031Z,91.62
2023-02-27T08:22:15.696Z,91.58
2023-02-27T08:24:44.167Z,91.57
2023-02-27T08:27:11.999Z,91.57
2023-02-27T08:29:39.872Z,91.37
2023-02-27T08:32:07.702Z,91.53
2023-02-27T08:34:43.814Z,91.42
2023-02-27T08:37:12.456Z,91.26
2023-02-27T08:39:40.431Z,91.12
2023-02-27T08:42:08.726Z,91.35
2023-02-27T08:44:36.886Z,91.45
2023-02-27T08:47:04.747Z,91.23
2023-02-27T08:49:32.619Z,90.77
2023-02-27T08:52:00.778Z,90.83
2023-02-27T08:54:28.525Z,90.84
2023-02-27T08:56:56.329Z,90.77
2023-02-27T08:59:24.389Z,90.75
2023-02-27T09:01:52.021Z,90.66
2023-02-27T09:04:20.502Z,90.37
2023-02-27T09:06:48.153Z,90.59
2023-02-27T09:09:15.866Z,90.42
2023-02-27T09:11:45.668Z,90.27
2023-02-27T09:14:13.296Z,90.04
2023-02-27T09:16:40.996Z,89.93
2023-02-27T09:19:08.814Z,90.02
2023-02-27T09:21:36.908Z,89.83
2023-02-27T09:24:18.668Z,89.63
2023-02-27T09:26:44.287Z,89.58
2023-02-27T09:29:05.213Z,89.53
2023-02-27T09:31:33.998Z,89.92
2023-02-27T09:34:01.840Z,89.87
2023-02-27T09:36:30.061Z,90.23
2023-02-27T09:38:59.325Z,90.52
2023-02-27T09:41:40.905Z,90.92
2023-02-27T09:44:45.172Z,90.48
2023-02-27T09:47:04.692Z,90.28
2023-02-27T09:49:40.760Z,90.07
2023-02-27T09:52:12.919Z,89.79
2023-02-27T09:54:42.541Z,89.90
2023-02-27T09:57:15.628Z,90.05
2023-02-27T10:00:00.813Z,90.16
2023-02-27T10:02:46.675Z,90.25
2023-02-27T10:05:55.528Z,90.36
2023-02-27T10:08:31.604Z,90.35
2023-02-27T10:11:09.013Z,90.53
2023-02-27T10:14:00.302Z,90.53
2023-02-27T10:16:29.980Z,90.35
2023-02-27T10:19:08.301Z,90.44
2023-02-27T10:21:44.638Z,90.23
2023-02-27T10:24:42.240Z,90.19
2023-02-27T10:27:20.726Z,90.35
2023-02-27T10:29:57.801Z,90.49
2023-02-27T10:32:32.489Z,89.98
2023-02-27T10:35:36.324Z,89.50
2023-02-27T10:38:21.897Z,89.10
2023-02-27T10:41:13.294Z,88.91
2023-02-27T10:43:41.959Z,89.24
2023-02-27T10:46:32.421Z,89.07
2023-02-27T10:49:06.865Z,88.94
2023-02-27T10:51:36.673Z,89.21
2023-02-27T10:54:23.015Z,89.38
2023-02-27T10:56:56.243Z,89.74
2023-02-27T10:59:35.235Z,89.87
2023-02-27T11:02:22.765Z,89.99
2023-02-27T11:04:59.270Z,89.93
2023-02-27T11:07:37.354Z,89.98
2023-02-27T11:10:19.944Z,90.08
2023-02-27T11:13:07.971Z,90.05
2023-02-27T11:15:38.394Z,89.94
2023-02-27T11:18:28.813Z,89.75
2023-02-27T11:21:28.590Z,89.59
2023-02-27T11:24:19.502Z,89.73
2023-02-27T11:26:58.707Z,90.12
2023-02-27T11:29:27.988Z,90.27
2023-02-27T11:32:06.689Z,90.59
2023-02-27T11:34:39.620Z,90.43
2023-02-27T11:37:36.803Z,90.47
2023-02-27T11:40:15.155Z,90.25
2023-02-27T11:42:48.135Z,90.02
2023-02-27T11:46:04.919Z,89.93
2023-02-27T11:48:19.454Z,89.98
2023-02-27T11:51:45.820Z,90.11
2023-02-27T11:54:29.521Z,90.07
2023-02-27T11:57:15.383Z,90.06
2023-02-27T11:59:57.901Z,90.09
2023-02-27T12:02:50.903Z,90.04
2023-02-27T12:05:41.900Z,90.34
2023-02-27T12:08:21.207Z,90.41
2023-02-27T12:11:26.166Z,90.42
2023-02-27T12:14:26.916Z,90.19
2023-02-27T12:16:59.484Z,90.24
2023-02-27T12:19:41.925Z,90.17
2023-02-27T12:22:15.581Z,90.28
2023-02-27T12:24:53.416Z,90.53
2023-02-27T12:27:26.106Z,90.54
2023-02-27T12:30:09.266Z,90.57
2023-02-27T12:32:50.288Z,90.53
2023-02-27T12:35:34.385Z,90.57
2023-02-27T12:38:05.668Z,90.47
2023-02-27T12:40:42.008Z,90.56
2023-02-27T12:43:21.095Z,90.45
2023-02-27T12:46:24.642Z,90.25
2023-02-27T12:49:27.393Z,90.00
2023-02-27T12:52:12.695Z,89.92
2023-02-27T12:55:11.948Z,89.95
2023-02-27T12:58:15.781Z,89.77
2023-02-27T13:01:00.397Z,89.89
2023-02-27T13:03:42.893Z,90.04
2023-02-27T13:06:25.305Z,90.06
2023-02-27T13:09:15.367Z,90.00
2023-02-27T13:12:08.053Z,90.11
2023-02-27T13:14:49.913Z,90.18
2023-02-27T13:17:41.474Z,90.08
2023-02-27T13:20:31.665Z,90.06
2023-02-27T13:23:25.473Z,89.94
2023-02-27T13:25:56.707Z,90.06
2023-02-27T13:28:27.752Z,90.14
2023-02-27T13:31:31.476Z,90.18
2023-02-27T13:34:29.064Z,90.09
2023-02-27T13:37:05.223Z,90.22
2023-02-27T13:39:52.121Z,90.17
2023-02-27T13:42:32.794Z,90.18
2023-02-27T13:45:04.741Z,90.39
2023-02-27T13:47:42.978Z,90.14
2023-02-27T13:50:28.068Z,89.94
2023-02-27T13:53:01.308Z,89.68
2023-02-27T13:55:34.402Z,89.59
2023-02-27T13:58:03.998Z,89.64
2023-02-27T14:00:38.490Z,89.74
2023-02-27T14:03:26.069Z,89.77
2023-02-27T14:05:58.367Z,89.94
2023-02-27T14:08:30.180Z,89.99
2023-02-27T14:11:03.690Z,89.90
2023-02-27T14:13:57.169Z,89.98
2023-02-27T14:16:48.445Z,90.01
2023-02-27T14:19:24.459Z,89.86
2023-02-27T14:22:18.987Z,89.88
2023-02-27T14:25:02.907Z,89.87
2023-02-27T14:27:56.598Z,89.86
2023-02-27T14:30:55.085Z,89.69
2023-02-27T14:33:40.216Z,89.61
2023-02-27T14:36:06.179Z,89.65
2023-02-27T14:38:36.878Z,89.68
2023-02-27T14:41:34.318Z,89.77
2023-02-27T14:44:02.518Z,89.71
2023-02-27T14:46:37.553Z,89.59
2023-02-27T14:49:22.749Z,89.58
2023-02-27T14:51:53.297Z,89.61
2023-02-27T14:54:27.308Z,89.64
2023-02-27T14:56:59.351Z,89.59
2023-02-27T14:59:33.380Z,89.48
2023-02-27T15:02:05.434Z,89.39
2023-02-27T15:04:33.551Z,89.35
2023-02-27T15:07:01.443Z,89.28
2023-02-27T15:09:44.369Z,89.18
2023-02-27T15:12:19.071Z,89.13
2023-02-27T15:14:59.610Z,89.15
2023-02-27T15:17:40.809Z,88.99
2023-02-27T15:20:29.514Z,89.00
2023-02-27T15:23:01.365Z,89.05
2023-02-27T15:25:38.408Z,89.14
2023-02-27T15:28:11.856Z,89.33
2023-02-27T15:30:39.696Z,89.10
2023-02-27T15:33:12.575Z,89.02
2023-02-27T15:35:45.052Z,89.01
2023-02-27T15:38:33.115Z,89.22
2023-02-27T15:41:03.672Z,89.15
2023-02-27T15:43:34.152Z,89.11
2023-02-27T15:46:02.139Z,89.09
2023-02-27T15:48:33.464Z,89.14
2023-02-27T15:51:03.810Z,89.08
2023-02-27T15:53:33.421Z,89.16
2023-02-27T15:56:06.303Z,89.05
2023-02-27T15:58:37.725Z,88.98
2023-02-27T16:01:14.107Z,89.02
2023-02-27T16:03:46.528Z,88.99
2023-02-27T16:06:32.885Z,88.94
2023-02-27T16:09:05.327Z,89.11
2023-02-27T16:11:40.660Z,89.14
2023-02-27T16:14:40.594Z,89.10
2023-02-27T16:17:33.308Z,88.97
2023-02-27T16:20:08.058Z,88.98
2023-02-27T16:22:35.980Z,88.76
2023-02-27T16:25:13.091Z,88.95
2023-02-27T16:27:45.578Z,88.98
2023-02-27T16:30:15.846Z,88.99
2023-02-27T16:32:43.780Z,89.06
2023-02-27T16:35:21.606Z,89.00
2023-02-27T16:37:53.204Z,88.83
2023-02-27T16:40:25.465Z,88.75
2023-02-27T16:42:53.789Z,88.73
2023-02-27T16:45:28.031Z,88.68
2023-02-27T16:48:00.101Z,88.76
2023-02-27T16:50:36.227Z,88.80
2023-02-27T16:53:04.340Z,88.79
2023-02-27T16:55:33.828Z,88.63
2023-02-27T16:58:02.130Z,88.66
2023-02-27T17:00:30.311Z,88.74
2023-02-27T17:02:58.679Z,88.78
2023-02-27T17:05:26.430Z,88.74
2023-02-27T17:07:54.178Z,88.85
2023-02-27T17:10:24.028Z,88.85
2023-02-27T17:12:52.315Z,88.78
2023-02-27T17:15:20.742Z,88.65
2023-02-27T17:17:48.570Z,88.77
2023-02-27T17:20:17.637Z,88.79
2023-02-27T17:22:45.449Z,88.75
2023-02-27T17:25:14.709Z,88.80
2023-02-27T17:27:43.862Z,88.86
2023-02-27T17:30:14.294Z,88.99
2023-02-27T17:32:45.047Z,88.93
2023-02-27T17:35:12.988Z,89.09
2023-02-27T17:37:40.716Z,89.05
2023-02-27T17:40:11.702Z,89.10
2023-02-27T17:42:40.039Z,89.08
2023-02-27T17:45:10.086Z,89.06
2023-02-27T17:47:37.902Z,89.09
2023-02-27T17:50:06.373Z,89.06
2023-02-27T17:52:39.063Z,88.96
2023-02-27T17:55:08.196Z,89.01
2023-02-27T17:57:36.864Z,88.99
2023-02-27T18:00:12.682Z,89.06
2023-02-27T18:02:41.187Z,89.09
2023-02-27T18:05:09.122Z,89.09
2023-02-27T18:07:36.961Z,89.09
2023-02-27T18:10:08.399Z,89.08
2023-02-27T18:12:36.800Z,88.99
2023-02-27T18:15:07.220Z,88.89
2023-02-27T18:17:34.920Z,88.97
2023-02-27T18:20:04.799Z,88.91
2023-02-27T18:22:38.602Z,89.00
2023-02-27T18:25:11.518Z,89.20
2023-02-27T18:27:39.544Z,89.24
2023-02-27T18:30:12.002Z,89.38
2023-02-27T18:32:51.084Z,89.38
2023-02-27T18:35:20.874Z,89.43
2023-02-27T18:37:48.421Z,89.45
2023-02-27T18:40:16.542Z,89.40
2023-02-27T18:42:48.056Z,89.31
2023-02-27T18:45:16.495Z,89.23
2023-02-27T18:47:47.291Z,89.29
2023-02-27T18:50:15.759Z,89.28
2023-02-27T18:52:50.800Z,89.27
2023-02-27T18:55:20.092Z,89.22
2023-02-27T18:57:55.151Z,89.24
2023-02-27T19:00:25.826Z,89.21
2023-02-27T19:02:53.343Z,89.10
2023-02-27T19:05:21.309Z,89.16
2023-02-27T19:07:49.455Z,88.98
2023-02-27T19:10:18.098Z,88.97
2023-02-27T19:12:51.031Z,88.86
2023-02-27T19:15:18.966Z,88.91
2023-02-27T19:17:46.639Z,88.89
2023-02-27T19:20:20.356Z,88.84
2023-02-27T19:22:49.686Z,88.97
2023-02-27T19:25:17.590Z,89.03
2023-02-27T19:27:46.341Z,89.15
2023-02-27T19:30:15.777Z,89.15
2023-02-27T19:32:48.594Z,89.16
2023-02-27T19:35:16.658Z,89.08
2023-02-27T19:37:48.363Z,89.00
2023-02-27T19:40:16.564Z,89.11
2023-02-27T19:42:44.231Z,89.11
2023-02-27T19:45:12.042Z,89.19
2023-02-27T19:47:49.024Z,89.17
2023-02-27T19:50:20.289Z,89.16
2023-02-27T19:52:53.548Z,89.19
2023-02-27T19:55:22.116Z,89.21
2023-02-27T19:57:50.104Z,89.16
2023-02-27T20:00:22.136Z,89.19
2023-02-27T20:02:57.392Z,89.30
2023-02-27T20:05:32.148Z,89.35
2023-02-27T20:08:00.569Z,89.26
2023-02-27T20:10:30.174Z,89.21
2023-02-27T20:12:59.873Z,89.19
2023-02-27T20:15:28.372Z,89.18
2023-02-27T20:17:56.688Z,89.20
2023-02-27T20:20:24.524Z,89.08
2023-02-27T20:22:52.988Z,89.11
2023-02-27T20:25:21.928Z,89.22
2023-02-27T20:27:50.504Z,89.20
2023-02-27T20:30:20.735Z,89.22
2023-02-27T20:32:49.115Z,89.31
2023-02-27T20:35:17.165Z,89.31
2023-02-27T20:37:44.984Z,89.32
2023-02-27T20:40:13.504Z,89.29
2023-02-27T20:42:41.610Z,89.34
2023-02-27T20:45:10.207Z,89.46
2023-02-27T20:47:38.518Z,89.42
2023-02-27T20:50:07.877Z,89.37
2023-02-27T20:52:35.889Z,89.37
2023-02-27T20:55:05.066Z,89.37
2023-02-27T20:57:33.089Z,89.42
2023-02-27T21:00:01.266Z,89.42
2023-02-27T21:02:29.280Z,89.42
2023-02-27T21:04:57.879Z,89.44
2023-02-27T21:07:26.233Z,89.43
2023-02-27T21:09:53.919Z,89.47
2023-02-27T21:12:22.009Z,89.46
2023-02-27T21:14:49.946Z,89.49
2023-02-27T21:17:18.176Z,89.50
2023-02-27T21:19:46.328Z,89.48
2023-02-27T21:22:15.786Z,89.53
2023-02-27T21:24:43.862Z,89.51
2023-02-27T21:27:11.703Z,89.48
2023-02-27T21:29:39.898Z,89.43
2023-02-27T21:32:07.893Z,89.50
2023-02-27T21:34:35.936Z,89.60
2023-02-27T21:37:05.911Z,89.59
2023-02-27T21:39:35.355Z,89.60
2023-02-27T21:42:06.167Z,89.60
2023-02-27T21:44:34.162Z,89.73
2023-02-27T21:47:03.972Z,89.69
2023-02-27T21:49:32.003Z,89.72
2023-02-27T21:51:59.915Z,89.75
2023-02-27T21:54:28.162Z,89.81
2023-02-27T21:56:57.752Z,89.79
2023-02-27T21:59:25.605Z,89.84
2023-02-27T22:01:53.612Z,89.90
2023-02-27T22:04:22.041Z,89.92
2023-02-27T22:06:52.631Z,89.90
2023-02-27T22:09:22.290Z,89.89
2023-02-27T22:11:50.364Z,89.90
2023-02-27T22:14:18.275Z,89.90
2023-02-27T22:16:46.692Z,89.92
2023-02-27T22:19:22.104Z,89.93
2023-02-27T22:21:50.068Z,89.89
2023-02-27T22:24:18.002Z,89.84
2023-02-27T22:26:47.188Z,89.86
2023-02-27T22:29:16.732Z,89.76
2023-02-27T22:31:44.561Z,89.79
2023-02-27T22:34:17.860Z,89.78
2023-02-27T22:36:48.597Z,89.88
2023-02-27T22:39:16.312Z,89.93
2023-02-27T22:41:45.545Z,89.99
2023-02-27T22:44:16.026Z,89.95
2023-02-27T22:46:48.075Z,89.93
2023-02-27T22:49:22.623Z,89.91
2023-02-27T22:51:51.905Z,89.77
2023-02-27T22:54:22.453Z,89.66
2023-02-27T22:56:52.618Z,89.76
2023-02-27T22:59:21.060Z,89.76
2023-02-27T23:01:51.002Z,89.90
2023-02-27T23:04:21.456Z,90.04
2023-02-27T23:06:52.477Z,89.95
2023-02-27T23:09:22.166Z,89.95
2023-02-27T23:11:50.167Z,89.92
2023-02-27T23:14:20.863Z,89.71
2023-02-27T23:16:48.678Z,89.80
2023-02-27T23:19:20.042Z,89.89
2023-02-27T23:21:48.067Z,90.02
2023-02-27T23:24:18.716Z,90.01
2023-02-27T23:26:50.143Z,89.88
2023-02-27T23:29:19.034Z,89.86
2023-02-27T23:31:47.453Z,89.95
2023-02-27T23:34:15.958Z,90.02
2023-02-27T23:36:43.727Z,89.94
2023-02-27T23:39:11.165Z,89.95
2023-02-27T23:41:38.987Z,89.94
2023-02-27T23:44:06.916Z,89.91
2023-02-27T23:46:34.378Z,89.89
2023-02-27T23:49:02.554Z,89.95
2023-02-27T23:51:31.096Z,90.02
2023-02-27T23:53:59.669Z,90.01
2023-02-27T23:56:30.488Z,90.00
2023-02-27T23:59:04.774Z,90.02
